Santa Teresa — D5AH6 — position and weather

sailwx.info

Track history (hours):
 
Tides and Currents Weather Stations Pressure Air Temp Water Temp Dewpoint Dewpoint Depression Visibility Wind Speed Wind Dir Waves Ship Positions

Santa Teresa

Last reported at 2014-Oct-31 04:24 UTC. Time now 2014-Oct-31 16:39 UTC.
Position N 22°10' E 114°13'.

Length 300 m; draft 10.8 m.

Type: Ship (hazmat cat A). MMSI: 636092317.

Date/timePositionNaut miles runAvg speedWind from/ knotsBaromVisibWave heightAir tempDewpointWater temp
2014-Oct-31 04:24N 22°10' E 114°13'9 7.9
2014-Oct-31 03:13N 22°12' E 114°23'23 2.8
2014-Oct-30 19:05N 22°34' E 114°16'0 0.3
2014-Oct-30 18:29N 22°34' E 114°16'0 0.0
2014-Oct-30 17:17N 22°34' E 114°16'0 0.0
2014-Oct-30 16:29N 22°34' E 114°16'0 0.1
2014-Oct-30 15:29N 22°34' E 114°16'0 0.1
2014-Oct-30 14:29N 22°34' E 114°16'0 0.0
2014-Oct-30 13:11N 22°34' E 114°16'0 0.0
2014-Oct-30 12:30N 22°34' E 114°16'0 0.1
2014-Oct-30 11:29N 22°34' E 114°16'0 0.0
2014-Oct-30 10:17N 22°34' E 114°16'0 0.0
2014-Oct-30 08:11N 22°34' E 114°16'0 0.2
2014-Oct-30 07:32N 22°34' E 114°16'20817.3
2014-Oct-29 19:28N 23°38' E 117°52'2122.5
2014-Oct-29 18:33N 23°52' E 118°07'1919.4
2014-Oct-29 17:33N 24°09' E 118°18'1514.2
2014-Oct-29 16:32N 24°21' E 118°09'10 9.7
2014-Oct-29 15:31N 24°29' E 118°04'2 1.7
2014-Oct-29 14:32N 24°31' E 118°05'0 0.0
2014-Oct-29 13:23N 24°31' E 118°05'0 0.0
2014-Oct-29 12:29N 24°31' E 118°05'0 0.0
2014-Oct-29 11:29N 24°31' E 118°05'0 0.0
2014-Oct-29 10:32N 24°31' E 118°05'0 0.0
2014-Oct-29 09:20N 24°31' E 118°05'0 0.0
2014-Oct-29 08:32N 24°31' E 118°05'0 0.0
2014-Oct-29 07:32N 24°31' E 118°05'0 0.0
2014-Oct-29 06:29N 24°31' E 118°05'0 0.1
2014-Oct-29 05:33N 24°31' E 118°05'7 7.3
2014-Oct-29 04:33N 24°24' E 118°07'1111.5
2014-Oct-29 03:33N 24°15' E 118°15'6 5.9
2014-Oct-29 02:31N 24°16' E 118°22'0 0.4
2014-Oct-29 01:31N 24°15' E 118°22'0 0.2
2014-Oct-29 00:32N 24°16' E 118°22'1 0.7
2014-Oct-28 23:32N 24°15' E 118°22'3 2.6
2014-Oct-28 22:33N 24°13' E 118°20'1313.0
2014-Oct-28 21:32N 24°13' E 118°34'1918.1
2014-Oct-28 20:30N 24°16' E 118°54'35618.6
2014-Oct-28 01:20N 29°17' E 122°29'1920.8
2014-Oct-28 00:27N 29°36' E 122°29'1516.0
2014-Oct-27 23:32N 29°46' E 122°17'9 8.9
2014-Oct-27 22:29N 29°48' E 122°07'6 5.6
2014-Oct-27 21:24N 29°46' E 122°00'0 0.0
2014-Oct-27 20:32N 29°46' E 122°00'0 0.0
2014-Oct-27 19:28N 29°46' E 122°00'0 0.0
2014-Oct-27 18:16N 29°46' E 122°00'0 0.0
2014-Oct-27 16:16N 29°46' E 122°00'0 0.0
2014-Oct-27 15:28N 29°46' E 122°00'0 0.0
2014-Oct-27 11:04N 29°46' E 122°00'0 0.0
2014-Oct-27 10:16N 29°46' E 122°00'0 0.0
2014-Oct-27 09:10N 29°46' E 122°00'0 0.0
2014-Oct-27 08:10N 29°46' E 122°00'0 0.0
2014-Oct-27 07:10N 29°46' E 122°00'0 0.0
2014-Oct-27 04:08N 29°46' E 122°00'1 1.6
2014-Oct-27 03:33N 29°46' E 122°01'1110.8
2014-Oct-27 02:33N 29°50' E 122°13'9 9.4
2014-Oct-27 01:33N 29°44' E 122°21'6 6.1
2014-Oct-27 00:33N 29°42' E 122°28'7 7.1
2014-Oct-26 23:33N 29°42' E 122°36'7 6.8
2014-Oct-26 22:33N 29°46' E 122°42'8 7.1
2014-Oct-26 21:29N 29°51' E 122°49'29 5.8
2014-Oct-26 16:26N 30°19' E 122°59'8 7.3
2014-Oct-26 15:24N 30°23' E 122°52'7 7.1
2014-Oct-26 14:25N 30°28' E 122°46'6 6.4
2014-Oct-26 13:32N 30°32' E 122°42'7 7.0
2014-Oct-26 12:33N 30°38' E 122°38'10 7.8
2014-Oct-26 11:19N 30°47' E 122°35'20 0.7
2014-Oct-25 06:32N 30°33' E 122°19'1414.1
2014-Oct-25 05:33N 30°37' E 122°04'1 0.0
2014-Oct-24 03:30N 30°37' E 122°03'1111.3
2014-Oct-24 02:30N 30°33' E 122°15'29 8.7
2014-Oct-23 23:08N 30°34' E 122°49'  
Track history (hours):
 
Tides and Currents Weather Stations Pressure Air Temp Water Temp Dewpoint Dewpoint Depression Visibility Wind Speed Wind Dir Waves Ship Positions

Santa Teresa

Last reported at 2014-Oct-31 04:24 UTC. Time now 2014-Oct-31 16:39 UTC.
Position N 22°10' E 114°13'.

Length 300 m; draft 10.8 m.

Type: Ship (hazmat cat A). MMSI: 636092317.

Date/timePositionNaut miles runAvg speedWind from/ knotsBaromVisibWave heightAir tempDewpointWater temp
2014-Oct-31 04:24N 22°10' E 114°13'9 7.9
2014-Oct-31 03:13N 22°12' E 114°23'23 2.8
2014-Oct-30 19:05N 22°34' E 114°16'0 0.3
2014-Oct-30 18:29N 22°34' E 114°16'0 0.0
2014-Oct-30 17:17N 22°34' E 114°16'0 0.0
2014-Oct-30 16:29N 22°34' E 114°16'0 0.1
2014-Oct-30 15:29N 22°34' E 114°16'0 0.1
2014-Oct-30 14:29N 22°34' E 114°16'0 0.0
2014-Oct-30 13:11N 22°34' E 114°16'0 0.0
2014-Oct-30 12:30N 22°34' E 114°16'0 0.1
2014-Oct-30 11:29N 22°34' E 114°16'0 0.0
2014-Oct-30 10:17N 22°34' E 114°16'0 0.0
2014-Oct-30 08:11N 22°34' E 114°16'0 0.2
2014-Oct-30 07:32N 22°34' E 114°16'20817.3
2014-Oct-29 19:28N 23°38' E 117°52'2122.5
2014-Oct-29 18:33N 23°52' E 118°07'1919.4
2014-Oct-29 17:33N 24°09' E 118°18'1514.2
2014-Oct-29 16:32N 24°21' E 118°09'10 9.7
2014-Oct-29 15:31N 24°29' E 118°04'2 1.7
2014-Oct-29 14:32N 24°31' E 118°05'0 0.0
2014-Oct-29 13:23N 24°31' E 118°05'0 0.0
2014-Oct-29 12:29N 24°31' E 118°05'0 0.0
2014-Oct-29 11:29N 24°31' E 118°05'0 0.0
2014-Oct-29 10:32N 24°31' E 118°05'0 0.0
2014-Oct-29 09:20N 24°31' E 118°05'0 0.0
2014-Oct-29 08:32N 24°31' E 118°05'0 0.0
2014-Oct-29 07:32N 24°31' E 118°05'0 0.0
2014-Oct-29 06:29N 24°31' E 118°05'0 0.1
2014-Oct-29 05:33N 24°31' E 118°05'7 7.3
2014-Oct-29 04:33N 24°24' E 118°07'1111.5
2014-Oct-29 03:33N 24°15' E 118°15'6 5.9
2014-Oct-29 02:31N 24°16' E 118°22'0 0.4
2014-Oct-29 01:31N 24°15' E 118°22'0 0.2
2014-Oct-29 00:32N 24°16' E 118°22'1 0.7
2014-Oct-28 23:32N 24°15' E 118°22'3 2.6
2014-Oct-28 22:33N 24°13' E 118°20'1313.0
2014-Oct-28 21:32N 24°13' E 118°34'1918.1
2014-Oct-28 20:30N 24°16' E 118°54'35618.6
2014-Oct-28 01:20N 29°17' E 122°29'1920.8
2014-Oct-28 00:27N 29°36' E 122°29'1516.0
2014-Oct-27 23:32N 29°46' E 122°17'9 8.9
2014-Oct-27 22:29N 29°48' E 122°07'6 5.6
2014-Oct-27 21:24N 29°46' E 122°00'0 0.0
2014-Oct-27 20:32N 29°46' E 122°00'0 0.0
2014-Oct-27 19:28N 29°46' E 122°00'0 0.0
2014-Oct-27 18:16N 29°46' E 122°00'0 0.0
2014-Oct-27 16:16N 29°46' E 122°00'0 0.0
2014-Oct-27 15:28N 29°46' E 122°00'0 0.0
2014-Oct-27 11:04N 29°46' E 122°00'0 0.0
2014-Oct-27 10:16N 29°46' E 122°00'0 0.0
2014-Oct-27 09:10N 29°46' E 122°00'0 0.0
2014-Oct-27 08:10N 29°46' E 122°00'0 0.0
2014-Oct-27 07:10N 29°46' E 122°00'0 0.0
2014-Oct-27 04:08N 29°46' E 122°00'1 1.6
2014-Oct-27 03:33N 29°46' E 122°01'1110.8
2014-Oct-27 02:33N 29°50' E 122°13'9 9.4
2014-Oct-27 01:33N 29°44' E 122°21'6 6.1
2014-Oct-27 00:33N 29°42' E 122°28'7 7.1
2014-Oct-26 23:33N 29°42' E 122°36'7 6.8
2014-Oct-26 22:33N 29°46' E 122°42'8 7.1
2014-Oct-26 21:29N 29°51' E 122°49'29 5.8
2014-Oct-26 16:26N 30°19' E 122°59'8 7.3
2014-Oct-26 15:24N 30°23' E 122°52'7 7.1
2014-Oct-26 14:25N 30°28' E 122°46'6 6.4
2014-Oct-26 13:32N 30°32' E 122°42'7 7.0
2014-Oct-26 12:33N 30°38' E 122°38'10 7.8
2014-Oct-26 11:19N 30°47' E 122°35'20 0.7
2014-Oct-25 06:32N 30°33' E 122°19'1414.1
2014-Oct-25 05:33N 30°37' E 122°04'1 0.0
2014-Oct-24 03:30N 30°37' E 122°03'1111.3
2014-Oct-24 02:30N 30°33' E 122°15'29 8.7
2014-Oct-23 23:08N 30°34' E 122°49'  

Dump ship's entire track history